Time;durP1;ratioP1;P1;durP2;ratioP2;P2;SDS_P1;SDS_P2;PMS_P1;PMS_P2;Temp;Humidity;BMP_temperature;BMP_pressure;BME280_temperature;BME280_humidity;BME280_pressure;Samples;Min_cycle;Max_cycle;Signal;HPM_P1;HPM_P2
2021/12/02 05:02:36;;;;;;;3.53;1.85;;;5.30;99.90;;;;;;4968559;23;90827;-75
2021/12/02 05:05:02;;;;;;;4.85;1.65;;;5.30;99.90;;;;;;4939301;28;90861;-75
2021/12/02 05:07:28;;;;;;;3.45;1.80;;;5.30;99.90;;;;;;4941219;28;90096;-75
2021/12/02 05:09:54;;;;;;;6.93;2.45;;;5.30;99.90;;;;;;4941162;28;89207;-75
2021/12/02 05:12:21;;;;;;;7.13;2.00;;;5.30;99.90;;;;;;4940680;28;90263;-75
2021/12/02 05:14:46;;;;;;;7.07;2.17;;;5.40;99.90;;;;;;4945806;23;91053;-75
2021/12/02 05:17:12;;;;;;;7.35;2.25;;;5.40;99.90;;;;;;4946247;28;93622;-75
2021/12/02 05:19:37;;;;;;;4.43;2.00;;;5.40;99.90;;;;;;4956029;28;89270;-75
2021/12/02 05:22:03;;;;;;;6.60;1.83;;;5.40;99.90;;;;;;4945041;28;92543;-75
2021/12/02 05:24:28;;;;;;;5.88;1.80;;;5.40;99.90;;;;;;4938709;28;91519;-75
2021/12/02 05:26:54;;;;;;;6.20;1.98;;;5.50;99.90;;;;;;4940838;28;89177;-75
2021/12/02 05:29:19;;;;;;;5.82;1.80;;;5.50;99.90;;;;;;4940941;28;89229;-75
2021/12/02 05:31:45;;;;;;;3.90;2.00;;;5.50;99.90;;;;;;4940955;28;89959;-75
2021/12/02 05:34:11;;;;;;;5.07;2.00;;;5.50;99.90;;;;;;4938619;28;91904;-75
2021/12/02 05:36:36;;;;;;;6.45;2.67;;;5.50;99.90;;;;;;4940728;28;89714;-75
2021/12/02 05:39:02;;;;;;;4.68;1.70;;;5.50;99.90;;;;;;4939987;28;90241;-75
2021/12/02 05:41:29;;;;;;;3.90;2.40;;;5.50;99.90;;;;;;4938740;28;92675;-75
2021/12/02 05:43:54;;;;;;;4.28;1.92;;;5.50;99.90;;;;;;4939855;28;90074;-75
2021/12/02 05:46:20;;;;;;;4.65;1.88;;;5.40;99.90;;;;;;4940380;28;89362;-75
2021/12/02 05:48:45;;;;;;;5.60;2.08;;;5.20;99.90;;;;;;4940131;28;89272;-75
2021/12/02 05:51:11;;;;;;;5.38;2.00;;;5.20;99.90;;;;;;4938346;28;91050;-75
2021/12/02 05:53:36;;;;;;;4.95;1.80;;;5.10;99.90;;;;;;4939957;28;89286;-75
2021/12/02 05:56:02;;;;;;;4.53;1.80;;;5.10;99.90;;;;;;4940180;28;88961;-75
2021/12/02 05:58:28;;;;;;;8.20;2.28;;;5.00;99.90;;;;;;4940179;28;89544;-75
2021/12/02 06:00:54;;;;;;;6.05;2.08;;;5.10;99.90;;;;;;4940058;28;89314;-75
2021/12/02 06:03:19;;;;;;;6.07;2.10;;;5.10;99.90;;;;;;4937775;28;94570;-75
2021/12/02 06:05:47;;;;;;;7.18;2.30;;;5.20;99.90;;;;;;4939408;28;89813;-75
2021/12/02 06:08:13;;;;;;;3.50;1.70;;;5.20;99.90;;;;;;4939957;28;89372;-75
2021/12/02 06:10:39;;;;;;;5.30;1.95;;;5.20;99.90;;;;;;4939909;28;89933;-75
2021/12/02 06:13:04;;;;;;;6.93;2.25;;;5.20;99.90;;;;;;4939933;28;89318;-75
2021/12/02 06:15:30;;;;;;;7.95;2.00;;;5.30;99.90;;;;;;4939555;28;89482;-75
2021/12/02 06:17:55;;;;;;;4.90;2.00;;;5.20;99.90;;;;;;4939907;28;89350;-75
2021/12/02 06:20:21;;;;;;;6.72;2.20;;;5.10;99.90;;;;;;4940084;28;90198;-75
2021/12/02 06:22:47;;;;;;;5.20;2.00;;;5.20;99.90;;;;;;4939564;28;89380;-75
2021/12/02 06:27:44;;;;;;;8.63;2.28;;;5.20;99.90;;;;;;4939294;28;90173;-75
2021/12/02 06:30:11;;;;;;;3.20;1.90;;;5.20;99.90;;;;;;4939313;28;90111;-75
2021/12/02 06:32:37;;;;;;;5.30;2.17;;;5.20;99.90;;;;;;4939559;28;89407;-75
2021/12/02 06:35:03;;;;;;;5.72;2.30;;;5.20;99.90;;;;;;4939203;28;89937;-75
2021/12/02 06:37:29;;;;;;;6.88;2.20;;;5.20;99.90;;;;;;4939247;28;89272;-75
2021/12/02 06:39:54;;;;;;;8.70;2.30;;;5.20;99.90;;;;;;4939347;28;89199;-75
2021/12/02 06:42:20;;;;;;;6.97;2.10;;;5.20;99.90;;;;;;4939279;28;89356;-75
2021/12/02 06:44:46;;;;;;;6.25;2.03;;;5.30;99.90;;;;;;4939213;28;89742;-75
2021/12/02 06:47:12;;;;;;;6.72;1.95;;;5.20;99.90;;;;;;4939519;28;89248;-75
2021/12/02 06:49:39;;;;;;;6.68;2.17;;;5.20;99.90;;;;;;4939525;28;90631;-75
2021/12/02 06:52:15;;;;;;;4.57;2.22;;;5.20;99.90;;;;;;4938741;28;90328;-75
2021/12/02 06:54:40;;;;;;;5.25;2.30;;;5.20;99.90;;;;;;4937326;28;93923;-75
2021/12/02 06:57:07;;;;;;;4.97;2.38;;;5.20;99.90;;;;;;4939382;28;89370;-75
2021/12/02 06:59:32;;;;;;;4.72;2.10;;;5.20;99.90;;;;;;4938021;28;89208;-75
2021/12/02 07:01:58;;;;;;;7.05;2.05;;;5.30;99.90;;;;;;4938690;28;89378;-75
2021/12/02 07:04:24;;;;;;;7.20;2.42;;;5.20;99.90;;;;;;4938892;28;89271;-75
2021/12/02 07:06:49;;;;;;;6.32;2.38;;;5.30;99.90;;;;;;4939466;28;89157;-76
2021/12/02 07:09:15;;;;;;;5.63;2.00;;;5.30;99.90;;;;;;4939316;28;88986;-76
2021/12/02 07:11:42;;;;;;;4.93;2.20;;;5.40;99.90;;;;;;4939709;28;89330;-76
2021/12/02 07:14:17;;;;;;;3.92;2.50;;;5.40;99.90;;;;;;4937494;28;91090;-76
2021/12/02 07:16:42;;;;;;;5.60;2.22;;;5.40;99.90;;;;;;4938865;28;90169;-78
2021/12/02 07:19:09;;;;;;;6.45;2.58;;;5.40;99.90;;;;;;4940104;28;90326;-76
2021/12/02 07:21:39;;;;;;;8.07;2.30;;;5.50;99.90;;;;;;4939400;28;89290;-76
2021/12/02 07:24:05;;;;;;;8.32;2.40;;;5.50;99.90;;;;;;4938324;28;89233;-76
2021/12/02 07:26:36;;;;;;;4.40;2.10;;;5.60;99.90;;;;;;4939101;28;89198;-76
2021/12/02 07:29:02;;;;;;;10.85;2.47;;;5.60;99.90;;;;;;4938746;28;89323;-76
2021/12/02 07:31:30;;;;;;;9.88;2.20;;;5.60;99.90;;;;;;4937092;28;91890;-76
2021/12/02 07:33:57;;;;;;;4.63;2.03;;;5.70;99.90;;;;;;4938509;28;89591;-76
2021/12/02 07:36:23;;;;;;;4.97;2.17;;;5.70;99.90;;;;;;4938818;28;89169;-76
2021/12/02 07:38:50;;;;;;;7.20;2.53;;;5.70;99.90;;;;;;4938646;28;89609;-76
2021/12/02 07:41:16;;;;;;;8.98;2.20;;;5.70;99.90;;;;;;4938135;28;90207;-76
2021/12/02 07:43:41;;;;;;;5.97;2.40;;;5.80;99.90;;;;;;4938327;28;90997;-76
2021/12/02 07:46:08;;;;;;;5.63;2.55;;;5.70;99.90;;;;;;4938748;28;89271;-76
2021/12/02 07:48:35;;;;;;;6.00;2.08;;;5.70;99.90;;;;;;4938808;28;89208;-76
2021/12/02 07:51:06;;;;;;;5.70;2.00;;;5.70;99.90;;;;;;4937782;28;91645;-76
2021/12/02 07:53:32;;;;;;;5.60;2.28;;;5.70;99.90;;;;;;4937107;28;92823;-76
2021/12/02 07:56:03;;;;;;;6.80;2.40;;;5.70;99.90;;;;;;4938978;28;89561;-76
2021/12/02 07:58:29;;;;;;;5.07;2.25;;;5.80;99.90;;;;;;4939292;28;89838;-76
2021/12/02 08:00:59;;;;;;;5.72;2.22;;;5.90;99.90;;;;;;4937918;28;89255;-76
2021/12/02 08:03:26;;;;;;;7.22;2.28;;;5.80;99.90;;;;;;4938057;28;89207;-76
2021/12/02 08:05:52;;;;;;;7.00;2.30;;;5.80;99.90;;;;;;4939415;28;90150;-76
2021/12/02 08:08:18;;;;;;;7.15;3.00;;;5.70;99.90;;;;;;4936967;28;91797;-76
2021/12/02 08:10:45;;;;;;;7.82;3.15;;;5.70;99.90;;;;;;4938762;28;90479;-76
2021/12/02 08:13:13;;;;;;;6.82;3.38;;;5.60;99.90;;;;;;4942747;28;89681;-75
2021/12/02 08:15:38;;;;;;;7.78;3.20;;;5.50;99.90;;;;;;4941953;28;89608;-75
2021/12/02 08:18:04;;;;;;;7.32;3.30;;;5.50;99.90;;;;;;4942013;28;89934;-75
2021/12/02 08:20:29;;;;;;;6.45;3.20;;;5.40;99.90;;;;;;4942321;28;89804;-75
2021/12/02 08:22:55;;;;;;;7.22;3.38;;;5.30;99.90;;;;;;4942921;28;88914;-75
2021/12/02 08:25:22;;;;;;;9.18;4.80;;;5.30;99.90;;;;;;4942113;28;89274;-75
2021/12/02 08:27:51;;;;;;;5.88;3.50;;;5.30;99.90;;;;;;4944512;28;90320;-75
2021/12/02 08:30:20;;;;;;;7.30;3.63;;;5.30;99.90;;;;;;4942788;28;91062;-75
2021/12/02 08:32:46;;;;;;;7.05;3.20;;;5.30;99.90;;;;;;4940543;28;92655;-75
2021/12/02 08:35:13;;;;;;;7.85;3.45;;;5.30;99.90;;;;;;4940955;28;89275;-76
2021/12/02 08:37:44;;;;;;;6.13;3.00;;;5.30;99.90;;;;;;4940269;28;92500;-75
2021/12/02 08:40:13;;;;;;;6.55;3.13;;;5.30;99.90;;;;;;4941831;28;90440;-75
2021/12/02 08:42:39;;;;;;;5.90;3.28;;;5.20;99.90;;;;;;4941340;28;89158;-75
2021/12/02 08:45:05;;;;;;;6.60;2.97;;;5.20;99.90;;;;;;4941719;28;89155;-74
2021/12/02 08:47:31;;;;;;;5.72;2.97;;;5.20;99.90;;;;;;4940113;28;92679;-74
2021/12/02 08:49:57;;;;;;;5.90;2.95;;;5.20;99.90;;;;;;4941416;28;90457;-74
2021/12/02 08:52:26;;;;;;;5.53;3.00;;;5.20;99.90;;;;;;4941309;28;89248;-75
2021/12/02 08:54:52;;;;;;;5.43;3.20;;;5.20;99.90;;;;;;4940520;28;90286;-75
2021/12/02 08:57:19;;;;;;;6.95;4.13;;;5.20;99.90;;;;;;4939560;28;91092;-74
2021/12/02 08:59:45;;;;;;;5.05;3.00;;;5.20;99.90;;;;;;4940875;28;89267;-74
2021/12/02 09:02:12;;;;;;;9.13;3.13;;;5.20;99.90;;;;;;4940802;28;89282;-74
2021/12/02 09:04:38;;;;;;;3.47;2.50;;;5.20;99.90;;;;;;4942863;28;89698;-76
2021/12/02 09:07:05;;;;;;;5.15;2.72;;;5.20;99.90;;;;;;4946192;28;89694;-74
2021/12/02 09:09:32;;;;;;;4.00;2.65;;;5.30;99.90;;;;;;4948575;28;90531;-76
2021/12/02 09:11:58;;;;;;;6.63;3.03;;;5.30;99.90;;;;;;4943998;28;91722;-75
2021/12/02 09:14:24;;;;;;;6.57;3.20;;;5.20;99.90;;;;;;4942660;28;89421;-75
2021/12/02 09:16:51;;;;;;;5.93;2.80;;;5.20;99.90;;;;;;4942698;28;89633;-75
2021/12/02 09:19:17;;;;;;;3.63;2.25;;;5.00;99.90;;;;;;4942609;28;90283;-74
2021/12/02 09:21:43;;;;;;;3.03;2.25;;;4.90;99.90;;;;;;4941021;28;90788;-75
2021/12/02 09:24:11;;;;;;;4.43;2.70;;;4.90;99.90;;;;;;4940512;28;89423;-75
2021/12/02 09:26:37;;;;;;;7.72;3.08;;;4.90;99.90;;;;;;4941623;28;89977;-75
2021/12/02 09:29:02;;;;;;;5.93;2.40;;;4.90;99.90;;;;;;4940325;28;91619;-74
2021/12/02 09:31:28;;;;;;;7.30;2.90;;;4.90;99.90;;;;;;4941072;28;89912;-79
2021/12/02 09:33:54;;;;;;;9.68;3.10;;;4.80;99.90;;;;;;4939131;28;89275;-76
2021/12/02 09:36:19;;;;;;;5.43;2.85;;;4.80;99.90;;;;;;4941111;28;89287;-76
2021/12/02 09:38:46;;;;;;;4.47;2.30;;;4.80;99.90;;;;;;4931568;28;92821;-76
2021/12/02 09:41:12;;;;;;;3.38;2.00;;;4.80;99.90;;;;;;4941151;28;90511;-76
2021/12/02 09:43:38;;;;;;;6.47;2.83;;;4.70;99.90;;;;;;4938538;28;90537;-76
2021/12/02 09:46:04;;;;;;;3.28;1.80;;;4.60;99.90;;;;;;4939609;28;90316;-76
2021/12/02 09:48:31;;;;;;;2.47;1.65;;;4.40;99.90;;;;;;4936866;28;89171;-76
2021/12/02 09:51:05;;;;;;;6.55;2.47;;;4.10;99.90;;;;;;4935544;28;89822;-77
2021/12/02 09:53:48;;;;;;;5.03;2.83;;;3.90;99.90;;;;;;4938764;28;89249;-76
2021/12/02 09:56:24;;;;;;;4.43;2.53;;;3.80;99.90;;;;;;4937692;28;89733;-75
2021/12/02 09:58:52;;;;;;;6.03;2.63;;;3.70;99.90;;;;;;4940183;28;89410;-76
2021/12/02 10:01:20;;;;;;;5.97;2.17;;;3.70;99.90;;;;;;4936059;28;91177;-77
2021/12/02 10:03:52;;;;;;;7.90;2.90;;;3.70;99.90;;;;;;4938675;28;89304;-76
2021/12/02 10:06:23;;;;;;;5.25;2.83;;;3.70;99.90;;;;;;4940112;28;89686;-76
2021/12/02 10:11:38;;;;;;;5.93;3.92;;;3.80;99.90;;;;;;4922601;28;90800;-76
2021/12/02 10:14:22;;;;;;;9.88;5.18;;;3.90;99.90;;;;;;4933430;28;89898;-76
2021/12/02 10:16:52;;;;;;;13.32;5.00;;;4.00;99.90;;;;;;4936991;28;89139;-76
2021/12/02 10:19:27;;;;;;;10.50;5.05;;;4.10;99.90;;;;;;4934807;28;89864;-76
2021/12/02 10:22:12;;;;;;;6.65;3.92;;;4.20;99.90;;;;;;4940234;28;89645;-75
2021/12/02 10:24:43;;;;;;;7.00;4.53;;;4.30;99.90;;;;;;4938710;28;89429;-75
2021/12/02 10:27:10;;;;;;;6.65;4.47;;;4.30;99.90;;;;;;4937950;28;91669;-77
2021/12/02 10:29:37;;;;;;;6.53;4.45;;;4.30;99.90;;;;;;4931474;28;90612;-77
2021/12/02 10:32:08;;;;;;;8.07;4.80;;;4.40;99.90;;;;;;4920474;28;89299;-77
2021/12/02 10:35:02;;;;;;;8.77;4.72;;;4.40;99.90;;;;;;4923531;28;90226;-77
2021/12/02 10:37:31;;;;;;;9.07;5.57;;;4.50;99.90;;;;;;4933824;28;91479;-81
2021/12/02 10:40:08;;;;;;;7.35;4.50;;;4.50;99.90;;;;;;4914502;28;90469;-80
2021/12/02 10:42:38;;;;;;;8.32;4.28;;;4.50;99.90;;;;;;4920457;28;89764;-79
2021/12/02 10:45:06;;;;;;;6.53;4.15;;;4.40;99.90;;;;;;4919729;28;89174;-79
2021/12/02 10:47:33;;;;;;;5.78;3.75;;;4.30;99.90;;;;;;4919883;28;90148;-79
2021/12/02 10:50:06;;;;;;;6.43;3.80;;;4.30;99.90;;;;;;4922635;28;90221;-79
2021/12/02 10:52:34;;;;;;;5.55;3.47;;;4.30;99.90;;;;;;4918867;28;91680;-79
2021/12/02 10:55:05;;;;;;;5.78;3.75;;;4.30;99.90;;;;;;4919566;28;89162;-79
2021/12/02 10:57:33;;;;;;;8.02;3.78;;;4.30;99.90;;;;;;4924823;28;89373;-78
2021/12/02 11:00:11;;;;;;;7.90;4.22;;;4.30;99.90;;;;;;4922611;28;90425;-79
2021/12/02 11:02:42;;;;;;;6.78;4.00;;;4.30;99.90;;;;;;4919621;28;89263;-79
2021/12/02 11:05:18;;;;;;;8.20;4.65;;;4.40;99.90;;;;;;4920173;28;89764;-79
2021/12/02 11:08:10;;;;;;;6.25;4.20;;;4.50;99.90;;;;;;4938929;28;90216;-79
2021/12/02 11:10:39;;;;;;;6.03;4.03;;;4.60;99.90;;;;;;4935104;28;91660;-79
2021/12/02 11:13:06;;;;;;;6.13;4.60;;;4.60;99.90;;;;;;4931272;28;89252;-79
2021/12/02 11:15:33;;;;;;;9.48;5.15;;;4.70;99.90;;;;;;4931978;28;90105;-78
2021/12/02 11:18:02;;;;;;;6.05;4.15;;;4.80;99.90;;;;;;4931578;28;93114;-76
2021/12/02 11:20:38;;;;;;;9.25;4.95;;;4.80;99.90;;;;;;4935672;28;90420;-77
2021/12/02 11:23:09;;;;;;;8.45;4.95;;;4.90;99.90;;;;;;4936153;28;89298;-76
2021/12/02 11:25:38;;;;;;;8.15;5.30;;;4.90;99.90;;;;;;4939978;28;90248;-77
2021/12/02 11:28:06;;;;;;;7.80;4.88;;;4.80;99.90;;;;;;4941711;28;91640;-77
2021/12/02 11:30:33;;;;;;;8.68;5.10;;;4.90;99.90;;;;;;4943841;28;89736;-77
2021/12/02 11:33:05;;;;;;;7.63;5.40;;;4.90;99.90;;;;;;4932518;28;91258;-77
2021/12/02 11:35:35;;;;;;;9.73;5.30;;;4.90;99.90;;;;;;4919735;28;89192;-77
2021/12/02 11:38:18;;;;;;;10.50;6.00;;;5.00;99.90;;;;;;4917650;28;92969;-77
2021/12/02 11:40:46;;;;;;;10.18;5.50;;;5.00;99.90;;;;;;4925700;28;89279;-77
2021/12/02 11:43:14;;;;;;;10.50;5.60;;;5.00;99.90;;;;;;4921031;28;91427;-77
2021/12/02 11:45:48;;;;;;;9.55;4.88;;;5.10;99.90;;;;;;4930393;28;89207;-77
2021/12/02 11:48:20;;;;;;;7.95;4.70;;;5.10;99.90;;;;;;4924020;28;89232;-77
2021/12/02 11:50:48;;;;;;;8.02;4.30;;;5.20;99.90;;;;;;4921599;28;93617;-77
2021/12/02 11:53:15;;;;;;;6.72;3.85;;;5.20;99.90;;;;;;4935021;28;93213;-76
2021/12/02 11:55:42;;;;;;;5.93;3.63;;;5.20;99.90;;;;;;4934997;28;89166;-83
2021/12/02 11:58:09;;;;;;;8.25;3.65;;;5.20;99.90;;;;;;4928790;28;90513;-82
2021/12/02 12:00:36;;;;;;;6.35;3.00;;;5.20;99.90;;;;;;4933299;28;89732;-80
2021/12/02 12:03:05;;;;;;;3.63;3.05;;;5.10;99.90;;;;;;4938125;28;92878;-78
2021/12/02 12:05:34;;;;;;;5.93;2.55;;;5.10;99.90;;;;;;4935170;28;89352;-79
2021/12/02 12:08:00;;;;;;;5.85;2.70;;;5.20;99.90;;;;;;4926796;28;88940;-77
2021/12/02 12:10:39;;;;;;;4.93;3.10;;;5.10;99.90;;;;;;4936624;28;93191;-80
2021/12/02 12:13:20;;;;;;;9.02;3.15;;;5.10;99.90;;;;;;4942664;28;92991;-81
2021/12/02 12:16:00;;;;;;;5.80;2.90;;;5.10;99.90;;;;;;4943710;28;90299;-79
2021/12/02 12:18:28;;;;;;;7.80;2.97;;;5.10;99.90;;;;;;4943710;28;91964;-80
2021/12/02 12:21:03;;;;;;;17.35;4.28;;;5.20;99.90;;;;;;4943823;28;92882;-80
2021/12/02 12:23:44;;;;;;;7.68;3.55;;;5.20;99.90;;;;;;4944018;28;91813;-78
2021/12/02 12:26:34;;;;;;;6.03;3.40;;;5.20;99.90;;;;;;4946901;28;89582;-78
2021/12/02 12:29:09;;;;;;;7.72;3.50;;;5.20;99.90;;;;;;4945395;28;90229;-79
2021/12/02 12:32:04;;;;;;;7.47;4.07;;;5.20;99.90;;;;;;4931073;28;89383;-76
2021/12/02 12:38:14;;;;;;;6.38;3.95;;;5.40;99.90;;;;;;4928531;28;89183;-79
2021/12/02 12:40:08;;;;;;;6.15;3.13;;;5.40;99.90;;;;;;4919420;28;90099;-76
2021/12/02 12:42:36;;;;;;;7.80;3.92;;;5.40;99.90;;;;;;4941865;28;90827;-80
2021/12/02 12:45:03;;;;;;;5.72;3.35;;;5.50;99.90;;;;;;4932747;28;91167;-76
2021/12/02 12:47:41;;;;;;;6.10;3.00;;;5.50;99.90;;;;;;4922589;28;89400;-77
2021/12/02 12:50:34;;;;;;;4.20;2.60;;;5.50;99.90;;;;;;4923943;28;92107;-75
2021/12/02 12:53:06;;;;;;;4.47;2.72;;;5.40;99.90;;;;;;4938883;28;89217;-79
2021/12/02 12:55:41;;;;;;;6.18;2.80;;;5.50;99.90;;;;;;4943267;28;91749;-78
2021/12/02 12:58:13;;;;;;;5.53;2.67;;;5.50;99.90;;;;;;4940153;28;89291;-77
2021/12/02 13:00:45;;;;;;;6.50;2.28;;;5.50;99.90;;;;;;4920634;28;93144;-77
2021/12/02 13:03:18;;;;;;;4.90;2.25;;;5.50;99.90;;;;;;4919957;28;91898;-79
2021/12/02 13:05:57;;;;;;;5.00;2.10;;;5.50;99.90;;;;;;4925046;28;90950;-78
2021/12/02 13:08:26;;;;;;;5.35;1.90;;;5.60;99.90;;;;;;4932522;28;90376;-77
2021/12/02 13:10:56;;;;;;;4.60;1.80;;;5.70;99.90;;;;;;4937387;28;89134;-82
2021/12/02 13:13:29;;;;;;;5.57;1.90;;;5.70;99.90;;;;;;4939539;28;91815;-76
2021/12/02 13:16:18;;;;;;;4.38;1.90;;;5.70;99.90;;;;;;4919725;28;91207;-74
2021/12/02 13:19:01;;;;;;;5.35;1.95;;;5.70;99.90;;;;;;4920835;28;89962;-74
2021/12/02 13:21:30;;;;;;;5.22;2.63;;;5.70;99.90;;;;;;4932030;28;91849;-74
2021/12/02 13:23:55;;;;;;;5.75;2.20;;;5.70;99.90;;;;;;4939656;28;90373;-74
2021/12/02 13:26:26;;;;;;;2.47;1.70;;;5.60;99.90;;;;;;4938989;28;88849;-75
2021/12/02 13:28:59;;;;;;;4.57;1.98;;;5.60;99.90;;;;;;4937209;28;89391;-74
2021/12/02 13:31:27;;;;;;;3.58;1.92;;;5.40;99.90;;;;;;4920876;28;89182;-74
2021/12/02 13:34:00;;;;;;;3.50;2.13;;;5.30;99.90;;;;;;4917737;28;92479;-74
2021/12/02 13:36:37;;;;;;;5.50;2.05;;;5.20;99.90;;;;;;4920446;28;90717;-74
2021/12/02 13:39:13;;;;;;;5.45;2.40;;;5.20;99.90;;;;;;4920658;28;89167;-75
2021/12/02 13:41:55;;;;;;;5.70;2.00;;;5.10;99.90;;;;;;4919443;28;90665;-74
2021/12/02 13:44:38;;;;;;;7.90;2.83;;;5.00;99.90;;;;;;4919782;28;89228;-75
2021/12/02 13:47:13;;;;;;;6.03;2.85;;;5.00;99.90;;;;;;4932431;28;89356;-74
2021/12/02 13:49:43;;;;;;;5.30;2.75;;;5.00;99.90;;;;;;4939969;28;89291;-74
2021/12/02 13:55:00;;;;;;;4.78;2.70;;;4.90;99.90;;;;;;4936996;28;89429;-75
2021/12/02 13:57:53;;;;;;;2.10;1.30;;;4.90;99.90;;;;;;4940096;28;89560;-75
2021/12/02 14:00:21;;;;;;;2.30;1.38;;;4.70;99.90;;;;;;4939716;28;90279;-75
2021/12/02 14:02:50;;;;;;;3.03;1.00;;;4.60;99.90;;;;;;4938042;28;90058;-75
2021/12/02 14:05:18;;;;;;;1.98;1.10;;;4.30;99.90;;;;;;4939248;28;90234;-74
2021/12/02 14:07:45;;;;;;;1.75;1.10;;;4.10;99.90;;;;;;4939636;28;89219;-75
2021/12/02 14:10:14;;;;;;;2.65;1.00;;;3.90;99.90;;;;;;4939527;28;89185;-74
2021/12/02 14:12:46;;;;;;;4.80;1.00;;;3.80;99.90;;;;;;4939388;28;89309;-74
2021/12/02 14:15:16;;;;;;;2.95;1.20;;;3.70;99.90;;;;;;4938327;28;89880;-74
2021/12/02 14:18:01;;;;;;;1.83;1.40;;;3.60;99.90;;;;;;4939314;28;88963;-74
2021/12/02 14:20:38;;;;;;;4.72;1.48;;;3.50;99.90;;;;;;4938525;28;89329;-75
2021/12/02 14:23:15;;;;;;;1.98;1.40;;;3.40;99.90;;;;;;4918304;28;91927;-77
2021/12/02 14:25:45;;;;;;;5.20;2.20;;;3.30;99.90;;;;;;4918698;28;91424;-76
2021/12/02 14:28:25;;;;;;;24.05;11.27;;;3.00;99.90;;;;;;4928292;28;89907;-79
2021/12/02 14:30:58;;;;;;;6.10;3.22;;;2.70;99.90;;;;;;4936398;28;89901;-73
2021/12/02 14:33:35;;;;;;;1.65;1.00;;;2.50;99.90;;;;;;4937291;28;93010;-73
2021/12/02 14:36:10;;;;;;;13.93;5.25;;;2.10;99.90;;;;;;4937272;28;91968;-73
2021/12/02 14:39:04;;;;;;;3.63;1.88;;;1.80;99.90;;;;;;4938622;28;91813;-78
2021/12/02 14:41:36;;;;;;;5.90;2.10;;;1.70;99.90;;;;;;4938445;28;89379;-75
2021/12/02 14:44:13;;;;;;;4.78;2.03;;;1.70;99.90;;;;;;4936932;28;90921;-74
2021/12/02 14:46:42;;;;;;;4.68;1.80;;;1.60;99.90;;;;;;4931001;28;91966;-77
2021/12/02 14:49:38;;;;;;;3.35;2.15;;;1.70;99.90;;;;;;4920435;28;89443;-74
2021/12/02 14:52:17;;;;;;;7.70;3.05;;;1.70;99.90;;;;;;4919093;28;90158;-74
2021/12/02 14:54:47;;;;;;;6.50;3.08;;;1.90;99.90;;;;;;4918358;28;90180;-77
2021/12/02 14:57:12;;;;;;;7.88;3.42;;;1.90;99.90;;;;;;4918036;28;93224;-76
2021/12/02 14:59:40;;;;;;;8.95;3.97;;;2.00;99.90;;;;;;4931724;28;89228;-75
2021/12/02 15:02:11;;;;;;;7.93;4.10;;;2.00;99.90;;;;;;4919496;28;89519;-75
2021/12/02 15:04:37;;;;;;;6.78;4.10;;;2.00;99.90;;;;;;4916806;28;91556;-76
2021/12/02 15:07:24;;;;;;;10.27;4.57;;;2.10;99.90;;;;;;4930858;28;89742;-75
2021/12/02 15:10:12;;;;;;;8.48;4.00;;;2.10;99.90;;;;;;4936433;28;88927;-76
2021/12/02 15:12:39;;;;;;;9.90;4.97;;;2.20;99.90;;;;;;4919282;28;89276;-75
2021/12/02 15:15:06;;;;;;;9.90;4.85;;;2.20;99.90;;;;;;4917845;28;90281;-75
2021/12/02 15:17:46;;;;;;;12.90;5.22;;;2.20;99.90;;;;;;4917660;28;92492;-74
2021/12/02 15:20:44;;;;;;;8.20;4.38;;;2.30;99.90;;;;;;4918659;28;90888;-75
2021/12/02 15:23:24;;;;;;;8.23;4.22;;;2.30;99.90;;;;;;4918416;28;89315;-75
2021/12/02 15:26:06;;;;;;;7.78;3.80;;;2.30;99.90;;;;;;4917713;28;91458;-75
2021/12/02 15:28:44;;;;;;;8.30;3.70;;;2.30;99.90;;;;;;4934595;28;90151;-74
2021/12/02 15:31:12;;;;;;;10.18;4.18;;;2.30;99.90;;;;;;4937401;28;90553;-79
2021/12/02 15:33:41;;;;;;;9.77;4.35;;;2.20;99.90;;;;;;4937766;28;89355;-75
2021/12/02 15:36:09;;;;;;;4.80;3.50;;;2.20;99.90;;;;;;4929377;28;95118;-75
2021/12/02 15:38:37;;;;;;;7.15;3.65;;;2.10;99.90;;;;;;4918099;28;89905;-74
2021/12/02 15:41:05;;;;;;;6.95;3.83;;;2.10;99.90;;;;;;4918476;28;90493;-76
2021/12/02 15:43:51;;;;;;;6.78;3.90;;;2.10;99.90;;;;;;4917857;28;90434;-75
2021/12/02 15:46:19;;;;;;;8.50;3.97;;;2.10;99.90;;;;;;4924838;28;92956;-77
2021/12/02 15:48:47;;;;;;;6.38;4.18;;;2.10;99.90;;;;;;4925344;28;90390;-76
2021/12/02 15:51:13;;;;;;;7.35;4.55;;;2.20;99.90;;;;;;4917511;28;89791;-75
2021/12/02 15:53:38;;;;;;;9.73;4.65;;;2.10;99.90;;;;;;4936523;28;89645;-76
2021/12/02 15:56:04;;;;;;;7.32;3.50;;;2.20;99.90;;;;;;4930994;28;89717;-77
2021/12/02 15:58:30;;;;;;;7.18;3.97;;;2.20;99.90;;;;;;4920328;28;93477;-74
2021/12/02 16:01:00;;;;;;;7.32;3.97;;;2.20;99.90;;;;;;4932005;28;89661;-80
2021/12/02 16:03:35;;;;;;;6.05;3.60;;;2.20;99.90;;;;;;4921992;28;89417;-77
2021/12/02 16:06:18;;;;;;;5.85;3.50;;;2.20;99.90;;;;;;4923351;28;90273;-75
2021/12/02 16:08:57;;;;;;;5.88;3.70;;;2.20;99.90;;;;;;4920651;28;92225;-75
2021/12/02 16:11:37;;;;;;;6.65;3.35;;;2.20;99.90;;;;;;4915554;28;92836;-76
2021/12/02 16:14:05;;;;;;;7.90;4.43;;;2.20;99.90;;;;;;4916900;28;89365;-77
2021/12/02 16:16:35;;;;;;;8.57;4.35;;;2.20;99.90;;;;;;4918469;28;92715;-75
2021/12/02 16:19:00;;;;;;;7.70;4.55;;;2.10;99.90;;;;;;4917936;28;91910;-76
2021/12/02 16:21:26;;;;;;;9.32;5.20;;;2.10;99.90;;;;;;4922042;28;89760;-78
2021/12/02 16:23:52;;;;;;;7.00;4.50;;;2.10;99.90;;;;;;4917405;28;90074;-75
2021/12/02 16:26:18;;;;;;;8.00;5.20;;;2.10;99.90;;;;;;4919457;28;89700;-81
2021/12/02 16:28:44;;;;;;;9.57;6.10;;;2.00;99.90;;;;;;4918771;28;90369;-77
2021/12/02 16:31:10;;;;;;;12.20;6.47;;;1.90;99.90;;;;;;4927205;28;90002;-77
2021/12/02 16:33:36;;;;;;;13.57;7.30;;;1.90;99.90;;;;;;4931288;28;90328;-76
2021/12/02 16:36:03;;;;;;;14.98;7.75;;;1.80;99.90;;;;;;4928722;28;89804;-76
2021/12/02 16:38:28;;;;;;;16.15;8.13;;;1.80;99.90;;;;;;4923667;28;90079;-79
2021/12/02 16:40:54;;;;;;;14.15;7.90;;;1.80;99.90;;;;;;4921667;28;90258;-76
2021/12/02 16:43:21;;;;;;;14.73;7.57;;;1.90;99.90;;;;;;4930566;28;89182;-77
2021/12/02 16:45:54;;;;;;;14.55;8.80;;;1.90;99.90;;;;;;4871381;28;91826;-78
2021/12/02 16:48:21;;;;;;;16.85;9.15;;;2.00;99.90;;;;;;4868820;28;91345;-80
2021/12/02 16:50:50;;;;;;;14.75;8.85;;;2.00;99.90;;;;;;4854924;28;92324;-82
2021/12/02 16:53:16;;;;;;;14.73;8.73;;;2.10;99.90;;;;;;4887528;28;91946;-77
2021/12/02 16:55:42;;;;;;;13.40;8.00;;;2.10;99.90;;;;;;4925281;28;92944;-77
2021/12/02 16:58:08;;;;;;;13.63;7.35;;;2.10;99.90;;;;;;4933240;28;90276;-80
2021/12/02 17:00:41;;;;;;;13.55;7.68;;;2.10;99.90;;;;;;4928257;28;89532;-80
2021/12/02 17:03:08;;;;;;;18.33;8.10;;;2.00;99.90;;;;;;4937768;28;89372;-76
2021/12/02 17:05:34;;;;;;;17.77;8.68;;;2.00;99.90;;;;;;4919905;28;89756;-74
2021/12/02 17:08:02;;;;;;;16.25;8.10;;;1.90;99.90;;;;;;4927888;28;90191;-73
2021/12/02 17:10:28;;;;;;;13.48;7.60;;;1.90;99.90;;;;;;4924871;28;89927;-77
2021/12/02 17:13:05;;;;;;;17.45;8.80;;;1.90;99.90;;;;;;4919895;28;89436;-77
2021/12/02 17:15:32;;;;;;;13.93;8.38;;;1.80;99.90;;;;;;4924272;28;88889;-77
2021/12/02 17:18:00;;;;;;;17.35;9.07;;;1.70;99.90;;;;;;4921322;28;90459;-77
2021/12/02 17:20:30;;;;;;;13.98;7.22;;;1.70;99.90;;;;;;4921228;28;89742;-76
2021/12/02 17:23:00;;;;;;;15.00;7.57;;;1.60;99.90;;;;;;4921165;28;90349;-78
2021/12/02 17:25:27;;;;;;;15.02;7.63;;;1.50;99.90;;;;;;4921194;28;89091;-75
2021/12/02 17:27:54;;;;;;;12.77;6.55;;;1.50;99.90;;;;;;4923667;28;89278;-79
2021/12/02 17:30:24;;;;;;;12.95;6.85;;;1.60;99.90;;;;;;4926541;28;89483;-80
2021/12/02 17:32:50;;;;;;;14.43;7.78;;;1.60;99.90;;;;;;4928833;28;89591;-78
2021/12/02 17:35:17;;;;;;;14.52;7.20;;;1.60;99.90;;;;;;4927363;28;91828;-77
2021/12/02 17:37:43;;;;;;;13.32;7.15;;;1.60;99.90;;;;;;4945385;28;89392;-81
2021/12/02 17:40:13;;;;;;;13.90;7.07;;;1.60;99.90;;;;;;4932920;28;89117;-82
2021/12/02 17:42:39;;;;;;;16.20;7.82;;;1.60;99.90;;;;;;4926854;28;89489;-81
2021/12/02 17:45:06;;;;;;;13.80;6.72;;;1.60;99.90;;;;;;4940439;28;91680;-81
2021/12/02 17:47:32;;;;;;;15.65;8.05;;;1.70;99.90;;;;;;4946889;28;92019;-77
2021/12/02 17:50:02;;;;;;;12.43;7.22;;;1.70;99.90;;;;;;4941376;28;93390;-76
2021/12/02 17:52:28;;;;;;;15.98;6.30;;;1.70;99.90;;;;;;4943031;28;89258;-78
2021/12/02 17:54:57;;;;;;;15.07;6.70;;;1.80;99.90;;;;;;4940747;28;89347;-76
2021/12/02 17:57:22;;;;;;;11.10;6.57;;;1.80;99.90;;;;;;4928819;28;92757;-77
2021/12/02 17:59:48;;;;;;;16.05;6.80;;;1.80;99.90;;;;;;4930948;28;89398;-77
2021/12/02 18:02:16;;;;;;;16.98;6.80;;;1.80;99.90;;;;;;4928573;28;89312;-77
2021/12/02 18:04:42;;;;;;;12.40;7.13;;;1.80;99.90;;;;;;4919812;28;89076;-78
2021/12/02 18:07:07;;;;;;;11.73;6.43;;;1.70;99.90;;;;;;4903822;28;90067;-78
2021/12/02 18:09:33;;;;;;;15.15;6.55;;;1.70;99.90;;;;;;4923332;28;91418;-78
2021/12/02 18:11:59;;;;;;;10.45;5.93;;;1.60;99.90;;;;;;4921503;28;90064;-77
2021/12/02 18:14:25;;;;;;;17.15;7.20;;;1.60;99.90;;;;;;4928628;28;89288;-77
2021/12/02 18:16:51;;;;;;;15.52;6.40;;;1.60;99.90;;;;;;4922859;28;90097;-77
2021/12/02 18:19:17;;;;;;;13.95;6.25;;;1.50;99.90;;;;;;4924718;28;90620;-76
2021/12/02 18:21:43;;;;;;;13.10;6.35;;;1.60;99.90;;;;;;4931670;28;89686;-77